| time (UTC) | temp C | wind direction | speed KPH | gust KPH | rain 1hr cm | rain 24hr cm | rain mn cm | humidity % | barometer mb |
| 20260510094523 | 22 | 188 | 6.4 | 14.5 | 0.00 | 0.00 | 0.00 | 78 | 1008.6 |
| 20260510093021 | 22 | 224 | 4.8 | 9.7 | 0.00 | 0.00 | 0.00 | 76 | 1008.6 |
| 20260510091519 | 22 | 112 | 3.2 | 12.9 | 0.00 | 0.00 | 0.00 | 75 | 1008.6 |
| 20260510090018 | 22 | 150 | 4.8 | 19.3 | 0.00 | 0.00 | 0.00 | 75 | 1008.4 |
| 20260510084517 | 22 | 215 | 4.8 | 9.7 | 0.00 | 0.00 | 0.00 | 76 | 1008.4 |
| 20260510083017 | 22 | 172 | 3.2 | 11.3 | 0.00 | 0.00 | 0.00 | 77 | 1008.4 |
| 20260510081515 | 22 | 138 | 1.6 | 6.4 | 0.00 | 0.00 | 0.00 | 80 | 1008.4 |
| 20260510080012 | 22 | 137 | 3.2 | 8.0 | 0.00 | 0.00 | 0.00 | 77 | 1008.4 |
| 20260510074513 | 22 | 181 | 3.2 | 11.3 | 0.00 | 0.00 | 0.00 | 79 | 1008.2 |
| 20260510073010 | 22 | 142 | 3.2 | 8.0 | 0.00 | 0.00 | 0.00 | 82 | 1008.3 |
| 20260510071506 | 23 | 143 | 3.2 | 9.7 | 0.00 | 0.00 | 0.00 | 80 | 1008.3 |
| 20260510070005 | 23 | 219 | 4.8 | 16.1 | 0.00 | 0.00 | 0.00 | 79 | 1008.2 |
| 20260510064504 | 23 | 170 | 4.8 | 16.1 | 0.00 | 0.00 | 0.00 | 79 | 1008.3 |
| 20260510063003 | 23 | 235 | 4.8 | 12.9 | 0.00 | 0.00 | 0.00 | 79 | 1008.2 |
| 20260510061501 | 23 | 155 | 1.6 | 9.7 | 0.00 | 0.00 | 0.00 | 82 | 1008.2 |
| 20260510060100 | 23 | 171 | 1.6 | 4.8 | 0.00 | 0.00 | 0.00 | 82 | 1008.2 |
| 20260510054559 | 23 | 229 | 1.6 | 8.0 | 0.00 | 0.00 | 0.00 | 82 | 1008.3 |
| 20260510053057 | 23 | 158 | 4.8 | 8.0 | 0.00 | 0.00 | 0.00 | 82 | 1008.2 |
| 20260510051556 | 23 | 114 | 3.2 | 6.4 | 0.00 | 0.00 | 0.00 | 82 | 1008.2 |
| 20260510050052 | 23 | 115 | 3.2 | 6.4 | 0.00 | 0.00 | 0.00 | 82 | 1008.1 |
| 20260510044552 | 22 | 132 | 0.0 | 1.6 | 0.00 | 0.00 | 0.00 | 84 | 1008.1 |
| 20260510043105 | 23 | 134 | 0.0 | 0.0 | 0.00 | 0.00 | 0.00 | 82 | 1007.9 |
| 20260510041550 | 23 | 134 | 0.0 | 0.0 | 0.00 | 0.00 | 0.00 | 81 | 1007.9 |
| 20260510040053 | 24 | 134 | 0.0 | 3.2 | 0.00 | 0.00 | 0.00 | 79 | 1007.8 |
| 20260510034548 | 25 | 130 | 1.6 | 4.8 | 0.00 | 0.00 | 0.00 | 77 | 1007.7 |
| 20260510033052 | 25 | 130 | 3.2 | 6.4 | 0.00 | 0.00 | 0.00 | 76 | 1007.5 |
| 20260510031554 | 25 | 127 | 4.8 | 6.4 | 0.00 | 0.00 | 0.00 | 75 | 1007.4 |
| 20260510030047 | 25 | 120 | 1.6 | 4.8 | 0.00 | 0.00 | 0.00 | 74 | 1007.2 |
| 20260510024546 | 25 | 127 | 3.2 | 6.4 | 0.00 | 0.00 | 0.00 | 72 | 1007.1 |
| 20260510023045 | 26 | 137 | 3.2 | 6.4 | 0.00 | 0.00 | 0.00 | 72 | 1006.8 |
| 20260510021544 | 26 | 141 | 3.2 | 4.8 | 0.00 | 0.00 | 0.00 | 70 | 1006.8 |
| 20260510020044 | 26 | 146 | 4.8 | 9.7 | 0.00 | 0.00 | 0.00 | 69 | 1006.7 |
| 20260510014543 | 26 | 136 | 6.4 | 9.7 | 0.00 | 0.00 | 0.00 | 67 | 1006.5 |
| 20260510013043 | 26 | 133 | 4.8 | 8.0 | 0.00 | 0.00 | 0.00 | 65 | 1006.4 |
| 20260510011543 | 27 | 123 | 3.2 | 8.0 | 0.00 | 0.00 | 0.00 | 63 | 1006.2 |
| 20260510010042 | 27 | 115 | 4.8 | 8.0 | 0.00 | 0.00 | 0.00 | 60 | 1006.0 |
| 20260510004541 | 28 | 129 | 3.2 | 9.7 | 0.00 | 0.00 | 0.00 | 53 | 1005.9 |
| 20260510003046 | 28 | 123 | 4.8 | 9.7 | 0.00 | 0.00 | 0.00 | 47 | 1005.7 |
| 20260510001541 | 29 | 132 | 4.8 | 16.1 | 0.00 | 0.00 | 0.00 | 47 | 1005.6 |
| 20260510000039 | 29 | 159 | 3.2 | 9.7 | 0.00 | 0.00 | 0.00 | 51 | 1005.5 |
| 20260509234538 | 29 | 113 | 4.8 | 8.0 | 0.00 | 0.00 | 0.00 | 54 | 1005.4 |
| 20260509233037 | 30 | 120 | 4.8 | 16.1 | 0.00 | 0.00 | 0.00 | 54 | 1005.3 |
| 20260509231536 | 30 | 148 | 3.2 | 9.7 | 0.00 | 0.00 | 0.00 | 52 | 1005.1 |
| 20260509230036 | 29 | 134 | 4.8 | 12.9 | 0.00 | 0.00 | 0.00 | 51 | 1005.1 |
| 20260509224547 | 29 | 153 | 3.2 | 8.0 | 0.00 | 0.00 | 0.00 | 54 | 1005.2 |
| 20260509223037 | 28 | 152 | 8.0 | 17.7 | 0.00 | 0.00 | 0.00 | 56 | 1005.1 |
| 20260509221535 | 27 | 158 | 14.5 | 25.7 | 0.00 | 0.00 | 0.00 | 61 | 1005.4 |
| 20260509220031 | 30 | 108 | 12.9 | 20.9 | 0.00 | 0.00 | 0.00 | 58 | 1005.5 |
| 20260509214531 | 32 | 121 | 1.6 | 3.2 | 0.00 | 0.00 | 0.00 | 51 | 1005.2 |
| 20260509213030 | 32 | 107 | 3.2 | 6.4 | 0.00 | 0.00 | 0.00 | 53 | 1005.4 |
| 20260509211528 | 32 | 110 | 1.6 | 6.4 | 0.00 | 0.00 | 0.00 | 50 | 1005.4 |
| 20260509210031 | 32 | 340 | 0.0 | 8.0 | 0.00 | 0.00 | 0.00 | 55 | 1005.6 |
| 20260509204521 | 31 | 98 | 3.2 | 4.8 | 0.00 | 0.00 | 0.00 | 58 | 1005.8 |
| 20260509203019 | 31 | 67 | 3.2 | 8.0 | 0.00 | 0.00 | 0.00 | 58 | 1006.1 |
| 20260509201516 | 30 | 101 | 3.2 | 6.4 | 0.00 | 0.00 | 0.00 | 60 | 1006.3 |
| 20260509200014 | 30 | 110 | 1.6 | 6.4 | 0.00 | 0.00 | 0.00 | 62 | 1006.6 |
| 20260509194513 | 30 | 98 | 4.8 | 6.4 | 0.00 | 0.00 | 0.00 | 65 | 1006.6 |
| 20260509193013 | 30 | 130 | 3.2 | 6.4 | 0.00 | 0.00 | 0.00 | 61 | 1006.9 |
| 20260509191508 | 30 | 157 | 1.6 | 3.2 | 0.00 | 0.00 | 0.00 | 65 | 1007.2 |
| 20260509190007 | 30 | 102 | 1.6 | 4.8 | 0.00 | 0.00 | 0.00 | 63 | 1007.6 |
| 20260509184511 | 30 | 116 | 1.6 | 4.8 | 0.00 | 0.00 | 0.00 | 68 | 1007.7 |
| 20260509183007 | 31 | 58 | 1.6 | 6.4 | 0.00 | 0.00 | 0.00 | 62 | 1007.7 |
| 20260509181504 | 30 | 173 | 1.6 | 6.4 | 0.00 | 0.00 | 0.00 | 66 | 1007.9 |
| 20260509180001 | 30 | 18 | 3.2 | 8.0 | 0.00 | 0.00 | 0.00 | 64 | 1008.1 |
| 20260509174559 | 30 | 40 | 1.6 | 4.8 | 0.00 | 0.00 | 0.00 | 69 | 1008.3 |
| 20260509173055 | 28 | 11 | 1.6 | 6.4 | 0.00 | 0.00 | 0.00 | 72 | 1008.5 |
| 20260509171555 | 28 | 9 | 0.0 | 9.7 | 0.00 | 0.00 | 0.00 | 75 | 1008.7 |
| 20260509170057 | 28 | 169 | 0.0 | 3.2 | 0.00 | 0.00 | 0.00 | 78 | 1008.7 |
| 20260509164554 | 26 | 28 | 1.6 | 6.4 | 0.00 | 0.00 | 0.00 | 80 | 1008.6 |
| 20260509163045 | 26 | 62 | 1.6 | 6.4 | 0.00 | 0.00 | 0.00 | 84 | 1008.7 |
| 20260509161546 | 25 | 277 | 1.6 | 6.4 | 0.00 | 0.00 | 0.00 | 87 | 1009.0 |
| 20260509160039 | 24 | 9 | 0.0 | 4.8 | 0.00 | 0.00 | 0.00 | 89 | 1009.0 |
| 20260509154537 | 24 | 17 | 0.0 | 3.2 | 0.00 | 0.00 | 0.00 | 90 | 1009.0 |
| 20260509153033 | 23 | 239 | 1.6 | 8.0 | 0.00 | 0.00 | 0.00 | 92 | 1009.0 |
| 20260509151528 | 22 | 180 | 4.8 | 9.7 | 0.00 | 0.00 | 0.00 | 93 | 1008.6 |
| 20260509150034 | 22 | 246 | 0.0 | 4.8 | 0.00 | 0.00 | 0.00 | 93 | 1009.4 |
| 20260509144531 | 22 | 139 | 0.0 | 3.2 | 0.00 | 0.00 | 0.00 | 93 | 1009.6 |
| 20260509143022 | 22 | 213 | 1.6 | 3.2 | 0.00 | 0.00 | 0.00 | 93 | 1009.5 |
| 20260509141522 | 22 | 224 | 0.0 | 0.0 | 0.00 | 0.00 | 0.00 | 93 | 1009.1 |
| 20260509140017 | 22 | 180 | 0.0 | 0.0 | 0.00 | 0.00 | 0.00 | 94 | 1008.7 |
| 20260509134515 | 22 | 181 | 0.0 | 0.0 | 0.00 | 0.00 | 0.00 | 94 | 1008.6 |
| 20260509133013 | 22 | 223 | 0.0 | 0.0 | 0.00 | 0.00 | 0.00 | 94 | 1008.7 |
| 20260509131510 | 21 | 223 | 0.0 | 0.0 | 0.00 | 0.00 | 0.00 | 93 | 1008.9 |
| 20260509130015 | 21 | 236 | 0.0 | 3.2 | 0.00 | 0.00 | 0.00 | 94 | 1008.7 |
| 20260509124510 | 21 | 143 | 3.2 | 4.8 | 0.00 | 0.00 | 0.00 | 94 | 1008.2 |
| 20260509123010 | 21 | 115 | 0.0 | 0.0 | 0.00 | 0.00 | 0.00 | 94 | 1008.5 |
| 20260509121516 | 21 | 115 | 0.0 | 0.0 | 0.00 | 0.00 | 0.00 | 94 | 1008.8 |
| 20260509120008 | 21 | 115 | 0.0 | 0.0 | 0.00 | 0.00 | 0.00 | 94 | 1008.9 |
| 20260509114512 | 21 | 115 | 0.0 | 3.2 | 0.00 | 0.00 | 0.00 | 93 | 1008.7 |
| 20260509113005 | 21 | 249 | 0.0 | 6.4 | 0.00 | 0.00 | 0.00 | 93 | 1008.7 |
| 20260509111504 | 21 | 86 | 0.0 | 4.8 | 0.00 | 0.00 | 0.00 | 93 | 1008.7 |
| 20260509110002 | 21 | 25 | 0.0 | 1.6 | 0.00 | 0.00 | 0.00 | 93 | 1008.4 |
| 20260509104502 | 21 | 95 | 0.0 | 0.0 | 0.00 | 0.00 | 0.00 | 93 | 1008.3 |
| 20260509103001 | 21 | 94 | 0.0 | 0.0 | 0.00 | 0.00 | 0.00 | 93 | 1008.5 |
| 20260509101606 | 21 | 94 | 0.0 | 4.8 | 0.00 | 0.00 | 0.00 | 93 | 1008.5 |
| 20260509100100 | 21 | 105 | 0.0 | 3.2 | 0.00 | 0.00 | 0.00 | 93 | 1008.1 |